Time;durP1;ratioP1;P1;durP2;ratioP2;P2;SDS_P1;SDS_P2;PMS_P1;PMS_P2;Temp;Humidity;BMP_temperature;BMP_pressure;BME280_temperature;BME280_humidity;BME280_pressure;Samples;Min_cycle;Max_cycle;Signal;HPM_P1;HPM_P2
2023/12/31 00:02:02;;;;;;;4.27;1.70;;;2.90;99.90;2.00;99975;;;;602082;239;24038;-81
2023/12/31 00:04:29;;;;;;;3.83;1.80;;;2.90;99.90;2.00;99966;;;;600817;239;24025;-82
2023/12/31 00:06:58;;;;;;;5.03;1.87;;;3.00;99.90;2.10;99966;;;;600973;239;24041;-80
2023/12/31 00:09:26;;;;;;;3.63;1.47;;;3.00;99.90;2.10;99959;;;;600955;239;24193;-83
2023/12/31 00:11:55;;;;;;;1.80;1.70;;;3.10;99.90;2.10;99962;;;;602741;237;25081;-80
2023/12/31 00:14:23;;;;;;;6.43;1.97;;;3.10;99.90;2.10;99959;;;;602283;238;24026;-81
2023/12/31 00:16:51;;;;;;;7.37;2.37;;;3.10;99.90;2.10;99957;;;;602107;239;24038;-80
2023/12/31 00:19:19;;;;;;;4.97;1.50;;;3.10;99.90;2.20;99955;;;;602082;239;24100;-79
2023/12/31 00:21:47;;;;;;;6.93;2.23;;;3.10;99.90;2.10;99955;;;;602333;239;24039;-80
2023/12/31 00:24:15;;;;;;;4.53;1.57;;;3.10;99.90;2.10;99961;;;;602778;239;24056;-81
2023/12/31 00:26:43;;;;;;;5.47;2.00;;;3.10;99.90;2.00;99957;;;;602802;239;24076;-80
2023/12/31 00:29:11;;;;;;;3.77;1.63;;;2.90;99.90;1.90;99953;;;;596587;238;24042;-80
2023/12/31 00:31:39;;;;;;;1.67;1.47;;;2.90;99.90;1.90;99950;;;;601555;239;24041;-81
2023/12/31 00:34:08;;;;;;;4.23;2.10;;;2.90;99.90;1.80;99943;;;;601707;239;24037;-81
2023/12/31 00:36:35;;;;;;;4.57;2.00;;;2.80;99.90;1.80;99947;;;;601579;239;24037;-82
2023/12/31 00:39:03;;;;;;;9.13;2.03;;;2.80;99.90;1.80;99949;;;;600452;239;24106;-81
2023/12/31 00:41:32;;;;;;;3.73;2.20;;;2.70;99.90;1.70;99951;;;;592333;239;24041;-82
2023/12/31 00:44:00;;;;;;;4.73;2.47;;;2.70;99.90;1.60;99954;;;;596680;239;24101;-82
2023/12/31 00:46:28;;;;;;;5.40;3.33;;;2.60;99.90;1.60;99966;;;;601510;239;24049;-81
2023/12/31 00:48:55;;;;;;;5.80;3.43;;;2.60;99.90;1.50;99962;;;;601344;239;24034;-82
2023/12/31 00:51:23;;;;;;;10.20;3.50;;;2.50;99.90;1.40;99957;;;;600750;239;24075;-81
2023/12/31 00:53:52;;;;;;;5.87;3.87;;;2.40;99.90;1.40;99962;;;;589704;240;24089;-81
2023/12/31 00:56:20;;;;;;;9.30;3.30;;;2.40;99.90;1.30;99958;;;;601355;239;24004;-81
2023/12/31 00:58:49;;;;;;;7.00;3.87;;;2.30;99.90;1.30;99963;;;;601396;239;24021;-81
2023/12/31 01:01:16;;;;;;;9.50;3.87;;;2.30;99.90;1.30;99962;;;;600815;239;24050;-81
2023/12/31 01:03:45;;;;;;;9.87;3.77;;;2.30;99.90;1.30;99975;;;;601434;239;24060;-82
2023/12/31 01:06:13;;;;;;;9.47;3.67;;;2.20;99.90;1.20;99969;;;;601479;239;24021;-81
2023/12/31 01:08:41;;;;;;;9.20;4.37;;;2.20;99.90;1.20;99968;;;;600410;239;24053;-81
2023/12/31 01:11:09;;;;;;;8.53;3.83;;;2.20;99.90;1.20;99971;;;;601423;239;24087;-81
2023/12/31 01:13:37;;;;;;;7.27;3.17;;;2.20;99.90;1.30;99970;;;;600880;239;24034;-82
2023/12/31 01:16:05;;;;;;;10.03;3.97;;;2.30;99.90;1.30;99968;;;;601389;239;24087;-81
2023/12/31 01:18:32;;;;;;;10.90;4.47;;;2.30;99.90;1.40;99967;;;;591792;240;24098;-80
2023/12/31 01:21:00;;;;;;;7.77;3.77;;;2.30;99.90;1.40;99970;;;;600587;239;24081;-81
2023/12/31 01:23:29;;;;;;;8.10;3.97;;;2.30;99.90;1.30;99965;;;;593262;239;24093;-81
2023/12/31 01:25:57;;;;;;;8.47;4.03;;;2.30;99.90;1.30;99969;;;;602291;234;25385;-81
2023/12/31 01:28:25;;;;;;;7.40;3.40;;;2.30;99.90;1.30;99972;;;;601682;239;24032;-81
2023/12/31 01:30:53;;;;;;;9.47;4.63;;;2.30;99.90;1.30;99972;;;;601514;239;24052;-80
2023/12/31 01:33:21;;;;;;;7.67;3.67;;;2.30;99.90;1.30;99971;;;;601422;239;24032;-80
2023/12/31 01:35:49;;;;;;;5.97;3.60;;;2.30;99.90;1.30;99977;;;;601268;239;24030;-81
2023/12/31 01:38:17;;;;;;;10.43;4.50;;;2.30;99.90;1.30;99968;;;;601258;239;24042;-81
2023/12/31 01:40:55;;;;;;;14.48;5.40;;;2.40;99.90;1.40;99969;;;;595866;239;35034;-82
2023/12/31 01:43:22;;;;;;;5.03;2.73;;;2.30;99.90;1.40;99968;;;;592187;239;24124;-81
2023/12/31 01:45:50;;;;;;;4.27;2.53;;;2.30;99.90;1.30;99971;;;;594958;239;24029;-82
2023/12/31 01:48:22;;;;;;;10.40;3.53;;;2.30;99.90;1.30;99968;;;;601453;239;24056;-81
2023/12/31 01:50:46;;;;;;;8.40;3.83;;;2.30;99.90;1.20;99971;;;;591409;239;24050;-81
2023/12/31 01:53:15;;;;;;;10.17;4.57;;;2.20;99.90;1.10;99969;;;;601215;239;24050;-80
2023/12/31 01:55:43;;;;;;;7.50;4.77;;;2.10;99.90;1.10;99970;;;;591783;239;24024;-80
2023/12/31 01:58:15;;;;;;;10.57;4.13;;;2.10;99.90;1.00;99976;;;;600889;239;24220;-80
2023/12/31 02:00:40;;;;;;;12.93;4.87;;;2.00;99.90;1.00;99968;;;;599827;239;24062;-81
2023/12/31 02:03:08;;;;;;;11.10;4.00;;;2.00;99.90;0.90;99971;;;;600765;239;24074;-81
2023/12/31 02:05:36;;;;;;;7.17;3.93;;;2.00;99.90;0.90;99973;;;;600710;239;24052;-81
2023/12/31 02:08:04;;;;;;;6.17;3.87;;;1.90;99.90;0.80;99966;;;;591001;240;24037;-81
2023/12/31 02:10:32;;;;;;;9.70;4.10;;;1.90;99.90;0.80;99968;;;;590807;240;24061;-81
2023/12/31 02:13:00;;;;;;;14.23;4.30;;;1.90;99.90;0.80;99966;;;;601170;239;24018;-81
2023/12/31 02:15:33;;;;;;;5.37;3.67;;;1.90;99.90;0.90;99977;;;;590307;240;26351;-81
2023/12/31 02:18:01;;;;;;;8.90;4.27;;;1.90;99.90;0.90;99986;;;;591247;240;25356;-81
2023/12/31 02:20:30;;;;;;;7.50;4.33;;;1.90;99.90;0.90;99988;;;;601087;239;24034;-81
2023/12/31 02:22:58;;;;;;;8.03;4.50;;;1.90;99.90;0.90;99983;;;;591711;240;25246;-80
2023/12/31 02:25:26;;;;;;;10.97;4.60;;;1.90;99.90;0.90;99980;;;;601111;239;24023;-81
2023/12/31 02:27:53;;;;;;;8.70;4.23;;;1.90;99.90;0.80;99987;;;;590849;239;24050;-80
2023/12/31 02:30:21;;;;;;;11.40;4.27;;;1.90;99.90;0.80;99991;;;;599701;238;24020;-81
2023/12/31 02:32:49;;;;;;;11.40;3.90;;;1.80;99.90;0.80;99983;;;;577783;244;24086;-81
2023/12/31 02:35:17;;;;;;;8.03;4.10;;;1.80;99.90;0.80;99985;;;;574385;247;24175;-80
2023/12/31 02:37:45;;;;;;;7.90;4.20;;;1.80;99.90;0.80;99988;;;;601377;238;25111;-81
2023/12/31 02:40:14;;;;;;;9.57;3.57;;;1.80;99.90;0.70;99979;;;;601576;239;24095;-81
2023/12/31 02:42:42;;;;;;;9.77;4.60;;;1.80;99.90;0.70;99979;;;;601318;239;24037;-81
2023/12/31 02:45:09;;;;;;;7.30;4.47;;;1.80;99.90;0.70;99979;;;;601725;239;24070;-80
2023/12/31 02:47:37;;;;;;;8.67;4.63;;;1.70;99.90;0.70;99980;;;;592331;239;24041;-80
2023/12/31 02:50:05;;;;;;;10.80;4.63;;;1.70;99.90;0.70;99991;;;;601704;239;24175;-80
2023/12/31 02:52:33;;;;;;;12.53;4.63;;;1.70;99.90;0.70;99988;;;;592082;239;24030;-81
2023/12/31 02:55:02;;;;;;;9.13;4.65;;;1.70;99.90;0.70;99978;;;;596190;239;35202;-81
2023/12/31 02:57:30;;;;;;;5.53;3.03;;;1.70;99.90;0.60;99983;;;;601811;239;24024;-81
2023/12/31 02:59:58;;;;;;;15.70;2.23;;;1.70;99.90;0.60;99977;;;;590789;237;24045;-80
2023/12/31 03:02:26;;;;;;;5.43;3.40;;;1.60;99.90;0.60;99991;;;;602743;239;24054;-80
2023/12/31 03:04:53;;;;;;;14.50;4.13;;;1.60;99.90;0.50;99990;;;;603124;239;24054;-81
2023/12/31 03:07:22;;;;;;;7.27;4.93;;;1.60;99.90;0.50;99984;;;;602461;239;24089;-81
2023/12/31 03:09:50;;;;;;;7.27;4.23;;;1.50;99.90;0.40;99991;;;;600881;239;24036;-81
2023/12/31 03:12:22;;;;;;;7.37;4.13;;;1.50;99.90;0.40;99984;;;;600883;239;24059;-81
2023/12/31 03:14:47;;;;;;;11.60;4.80;;;1.40;99.90;0.40;99987;;;;590629;240;24051;-81
2023/12/31 03:17:18;;;;;;;10.47;4.47;;;1.40;99.90;0.40;100004;;;;600654;239;24077;-81
2023/12/31 03:19:42;;;;;;;7.93;4.57;;;1.40;99.90;0.30;99999;;;;593787;240;24064;-81
2023/12/31 03:22:10;;;;;;;9.97;4.93;;;1.40;99.90;0.30;100000;;;;600634;239;24046;-81
2023/12/31 03:24:38;;;;;;;10.40;5.07;;;1.40;99.90;0.30;99995;;;;600286;239;24065;-80
2023/12/31 03:27:06;;;;;;;11.70;5.00;;;1.40;99.90;0.20;100003;;;;600719;239;24030;-81
2023/12/31 03:29:34;;;;;;;12.13;5.65;;;1.30;99.90;0.20;99993;;;;595585;239;35107;-81
2023/12/31 03:32:02;;;;;;;3.83;2.43;;;1.20;99.90;0.10;100001;;;;588821;238;24035;-81
2023/12/31 03:34:30;;;;;;;10.03;3.90;;;1.20;99.90;0.10;100006;;;;594258;240;24071;-81
2023/12/31 03:36:58;;;;;;;12.32;4.78;;;1.10;99.90;0.10;100005;;;;595571;239;35037;-81
2023/12/31 03:39:26;;;;;;;3.90;3.07;;;1.10;99.90;0.00;100003;;;;600664;239;24045;-80
2023/12/31 03:41:54;;;;;;;2.90;2.10;;;1.10;99.90;0.00;100012;;;;600831;239;24062;-81
2023/12/31 03:44:22;;;;;;;10.53;4.50;;;1.10;99.90;0.00;100011;;;;600608;239;24044;-81
2023/12/31 03:46:51;;;;;;;10.50;4.67;;;1.10;99.90;0.00;100012;;;;602210;237;25099;-81
2023/12/31 03:49:19;;;;;;;11.97;5.30;;;1.10;99.90;0.10;100014;;;;602217;239;28273;-81
2023/12/31 03:51:47;;;;;;;11.23;4.93;;;1.10;99.90;0.10;100009;;;;601482;239;24037;-81
2023/12/31 03:54:15;;;;;;;8.13;4.40;;;1.10;99.90;0.10;100005;;;;601919;239;24032;-81
2023/12/31 03:56:43;;;;;;;9.20;4.57;;;1.20;99.90;0.10;100016;;;;601715;239;25104;-81
2023/12/31 03:59:10;;;;;;;9.83;4.60;;;1.20;99.90;0.10;100015;;;;601722;239;24062;-82
2023/12/31 04:01:45;;;;;;;12.63;4.83;;;1.20;99.90;0.10;100015;;;;601765;239;24061;-81
2023/12/31 04:04:15;;;;;;;8.25;2.85;;;1.20;99.90;0.10;100020;;;;583696;239;35034;-81
2023/12/31 04:06:43;;;;;;;1.97;1.87;;;1.20;99.90;0.10;100013;;;;595080;239;24077;-81
2023/12/31 04:09:12;;;;;;;8.82;3.80;;;1.20;99.90;0.10;100012;;;;595667;239;34974;-81
2023/12/31 04:11:40;;;;;;;8.13;2.47;;;1.20;99.90;0.10;100013;;;;601438;239;25441;-81
2023/12/31 04:14:08;;;;;;;1.97;1.77;;;1.20;99.90;0.10;100005;;;;601031;239;24045;-82
2023/12/31 04:16:36;;;;;;;4.80;2.33;;;1.20;99.90;0.10;100017;;;;600220;239;24021;-80
2023/12/31 04:19:04;;;;;;;8.60;3.00;;;1.20;99.90;0.10;100016;;;;601036;239;24041;-81
2023/12/31 04:21:31;;;;;;;6.13;3.90;;;1.20;99.90;0.10;100014;;;;600815;239;24023;-81
2023/12/31 04:23:59;;;;;;;9.27;3.70;;;1.20;99.90;0.20;100009;;;;600295;239;24133;-81
2023/12/31 04:26:27;;;;;;;11.27;4.07;;;1.20;99.90;0.20;100012;;;;600703;234;24038;-81
2023/12/31 04:28:55;;;;;;;9.27;4.57;;;1.30;99.90;0.20;100010;;;;601259;239;24034;-81
2023/12/31 04:31:23;;;;;;;9.20;4.03;;;1.30;99.90;0.10;100006;;;;600658;239;24022;-80
2023/12/31 04:33:51;;;;;;;9.07;4.53;;;1.20;99.90;0.10;100015;;;;601187;239;24057;-80
2023/12/31 04:36:19;;;;;;;10.70;4.57;;;1.20;99.90;0.10;100018;;;;601298;239;24038;-80
2023/12/31 04:38:47;;;;;;;10.07;5.13;;;1.20;99.90;0.10;100009;;;;601234;239;24023;-81
2023/12/31 04:41:24;;;;;;;12.07;4.70;;;1.10;99.90;0.00;100012;;;;601214;239;24036;-81
2023/12/31 04:43:49;;;;;;;9.13;4.37;;;1.10;99.90;0.00;100012;;;;590854;240;24159;-81
2023/12/31 04:46:23;;;;;;;10.23;4.07;;;1.10;99.90;0.00;100015;;;;600592;239;24014;-80
2023/12/31 04:48:48;;;;;;;9.87;4.23;;;1.10;99.90;0.00;100020;;;;591012;240;24031;-80
2023/12/31 04:51:28;;;;;;;10.13;3.90;;;1.10;99.90;0.00;100014;;;;594243;240;25046;-80
2023/12/31 04:53:56;;;;;;;8.07;3.93;;;1.10;99.90;0.00;100010;;;;591139;240;24034;-81
2023/12/31 04:56:25;;;;;;;8.48;2.72;;;1.10;99.90;0.10;100019;;;;589762;237;35014;-79
2023/12/31 04:58:55;;;;;;;7.70;2.27;;;1.10;99.90;0.00;100007;;;;589291;239;25440;-80
2023/12/31 05:01:25;;;;;;;7.30;2.40;;;1.10;99.90;0.00;100010;;;;592173;239;24383;-80
2023/12/31 05:03:52;;;;;;;8.77;3.13;;;1.10;99.90;0.00;100006;;;;601533;239;24123;-81
2023/12/31 05:06:20;;;;;;;10.40;3.60;;;1.00;99.90;0.00;100003;;;;601353;239;24029;-80
2023/12/31 05:08:48;;;;;;;10.40;4.43;;;1.00;99.90;0.00;100003;;;;601402;239;24037;-80
2023/12/31 05:11:16;;;;;;;10.87;3.97;;;1.00;99.90;0.00;100009;;;;591870;239;25063;-80
2023/12/31 05:13:45;;;;;;;7.63;4.30;;;1.00;99.90;-0.10;100014;;;;591841;239;24045;-80
2023/12/31 05:16:16;;;;;;;8.10;4.07;;;0.90;99.90;-0.20;100014;;;;601047;239;25091;-80
2023/12/31 05:18:46;;;;;;;10.47;4.70;;;0.90;99.90;-0.10;100017;;;;591575;239;25311;-81
2023/12/31 05:21:15;;;;;;;8.77;4.13;;;0.90;99.90;-0.20;100027;;;;591742;239;24050;-80
2023/12/31 05:23:43;;;;;;;7.73;4.27;;;0.90;99.90;-0.20;100026;;;;600902;239;24020;-81
2023/12/31 05:26:11;;;;;;;10.30;4.47;;;0.90;99.90;-0.20;100027;;;;601139;239;24056;-81
2023/12/31 05:28:39;;;;;;;10.40;4.07;;;0.90;99.90;-0.20;100025;;;;591634;239;24046;-80
2023/12/31 05:31:10;;;;;;;12.43;4.63;;;0.90;99.90;-0.20;100021;;;;591804;239;24077;-80
2023/12/31 05:33:38;;;;;;;9.37;4.27;;;0.90;99.90;-0.20;100026;;;;590387;240;24065;-80
2023/12/31 05:36:07;;;;;;;7.73;4.63;;;0.80;99.90;-0.20;100027;;;;590961;240;24049;-80
2023/12/31 05:38:31;;;;;;;12.40;4.70;;;0.80;99.90;-0.30;100013;;;;601268;239;24052;-80
2023/12/31 05:40:59;;;;;;;8.43;4.93;;;0.80;99.90;-0.30;100022;;;;589200;240;24036;-80
2023/12/31 05:43:27;;;;;;;10.50;4.93;;;0.80;99.90;-0.30;100026;;;;602251;239;24045;-80
2023/12/31 05:45:58;;;;;;;15.23;4.63;;;0.80;99.90;-0.20;100015;;;;593363;240;24046;-80
2023/12/31 05:48:23;;;;;;;11.27;4.80;;;0.80;99.90;-0.30;100024;;;;591945;240;24134;-81
2023/12/31 05:50:51;;;;;;;12.13;5.17;;;0.80;99.90;-0.20;100021;;;;589110;240;24016;-81
2023/12/31 05:53:19;;;;;;;14.90;5.77;;;0.80;99.90;-0.20;100028;;;;591422;240;25073;-81
2023/12/31 05:55:47;;;;;;;14.17;5.87;;;0.90;99.90;-0.20;100034;;;;591538;240;24028;-81
2023/12/31 05:58:15;;;;;;;7.37;3.90;;;0.90;99.90;-0.20;100027;;;;591513;240;27384;-81
2023/12/31 06:00:43;;;;;;;8.73;5.17;;;0.90;99.90;-0.30;100030;;;;601086;239;24024;-81
2023/12/31 06:03:11;;;;;;;12.90;6.03;;;0.80;99.90;-0.30;100026;;;;600961;239;24029;-80
2023/12/31 06:05:40;;;;;;;10.27;4.73;;;0.80;99.90;-0.40;100035;;;;591551;240;24076;-81
2023/12/31 06:08:08;;;;;;;10.97;4.87;;;0.70;99.90;-0.40;100027;;;;592197;239;24048;-81
2023/12/31 06:10:36;;;;;;;9.07;5.03;;;0.70;99.90;-0.40;100031;;;;592878;239;24018;-81
2023/12/31 06:13:04;;;;;;;9.60;5.37;;;0.70;99.90;-0.40;100031;;;;602031;238;24143;-81
2023/12/31 06:15:32;;;;;;;8.57;5.17;;;0.70;99.90;-0.40;100032;;;;602044;238;24114;-81
2023/12/31 06:18:01;;;;;;;8.83;4.87;;;0.70;99.90;-0.40;100039;;;;592173;239;24042;-81
2023/12/31 06:20:29;;;;;;;12.17;5.47;;;0.70;99.90;-0.40;100051;;;;601373;239;24031;-81
2023/12/31 06:22:57;;;;;;;14.80;5.77;;;0.70;99.90;-0.40;100042;;;;591330;239;24056;-82
2023/12/31 06:25:24;;;;;;;14.73;5.53;;;0.70;99.90;-0.40;100042;;;;591995;239;24056;-81
2023/12/31 06:27:54;;;;;;;8.07;5.27;;;0.70;99.90;-0.40;100042;;;;591651;239;24053;-82
2023/12/31 06:30:20;;;;;;;7.77;5.03;;;0.70;99.90;-0.40;100044;;;;601384;239;24032;-82
2023/12/31 06:32:50;;;;;;;11.13;5.00;;;0.70;99.90;-0.40;100047;;;;601446;239;24054;-81
2023/12/31 06:35:18;;;;;;;9.13;5.47;;;0.70;99.90;-0.40;100044;;;;592009;239;24040;-80
2023/12/31 06:37:46;;;;;;;8.93;5.63;;;0.70;99.90;-0.40;100049;;;;600828;239;24040;-79
2023/12/31 06:40:13;;;;;;;12.83;5.87;;;0.70;99.90;-0.40;100044;;;;601480;239;24064;-80
2023/12/31 06:42:41;;;;;;;14.73;6.67;;;0.70;99.90;-0.40;100048;;;;589482;238;24063;-81
2023/12/31 06:45:09;;;;;;;15.23;7.00;;;0.70;99.90;-0.30;100057;;;;591471;240;24057;-81
2023/12/31 06:47:38;;;;;;;19.17;7.47;;;0.70;99.90;-0.30;100053;;;;591537;240;24085;-81
2023/12/31 06:50:06;;;;;;;11.03;6.63;;;0.80;99.90;-0.30;100052;;;;591311;240;24039;-80
2023/12/31 06:52:34;;;;;;;16.60;6.93;;;0.80;99.90;-0.20;100059;;;;591263;240;24035;-80
2023/12/31 06:55:02;;;;;;;18.67;6.77;;;0.80;99.90;-0.20;100055;;;;591470;240;24109;-80
2023/12/31 06:57:30;;;;;;;16.30;6.60;;;0.90;99.90;-0.10;100054;;;;591329;240;26325;-81
2023/12/31 06:59:58;;;;;;;14.13;6.60;;;0.90;99.90;-0.20;100056;;;;591478;240;24032;-79
2023/12/31 07:02:26;;;;;;;10.33;6.77;;;0.90;99.90;-0.20;100068;;;;591354;240;24033;-81
2023/12/31 07:04:54;;;;;;;11.73;6.07;;;0.90;99.90;-0.20;100069;;;;591243;240;24027;-81
2023/12/31 07:07:21;;;;;;;11.97;6.40;;;0.90;99.90;-0.20;100066;;;;588815;240;24030;-82
2023/12/31 07:09:50;;;;;;;11.80;6.10;;;0.90;99.90;-0.20;100069;;;;591311;240;24042;-82
2023/12/31 07:12:18;;;;;;;11.17;6.10;;;0.80;99.90;-0.30;100070;;;;591500;240;24027;-81
2023/12/31 07:14:46;;;;;;;15.87;6.83;;;0.80;99.90;-0.30;100065;;;;591826;240;24019;-82
2023/12/31 07:17:14;;;;;;;13.97;6.77;;;0.80;99.90;-0.30;100073;;;;591843;240;24089;-81
2023/12/31 07:19:42;;;;;;;8.87;6.57;;;0.80;99.90;-0.30;100073;;;;589251;239;24045;-82
2023/12/31 07:22:10;;;;;;;16.10;7.30;;;0.80;99.90;-0.30;100076;;;;602159;238;24029;-81
2023/12/31 07:24:38;;;;;;;21.92;10.23;;;0.80;99.90;-0.20;100073;;;;587351;239;35020;-80
2023/12/31 07:27:08;;;;;;;8.77;4.80;;;0.90;99.90;-0.10;100078;;;;591766;239;24089;-80
2023/12/31 07:29:35;;;;;;;10.00;5.37;;;0.90;99.90;0.00;100067;;;;589671;238;24044;-81
2023/12/31 07:32:03;;;;;;;14.27;7.20;;;1.00;99.90;0.20;100070;;;;601399;239;24022;-82
2023/12/31 07:34:31;;;;;;;15.73;8.13;;;1.20;99.90;0.30;100062;;;;601472;239;24091;-80
2023/12/31 07:36:59;;;;;;;12.93;8.17;;;1.40;99.90;0.40;100067;;;;601393;239;24081;-80
2023/12/31 07:39:28;;;;;;;17.97;7.80;;;1.50;99.90;0.50;100079;;;;594598;239;24050;-80
2023/12/31 07:41:56;;;;;;;13.97;8.27;;;1.50;99.90;0.60;100078;;;;601058;239;24047;-80
2023/12/31 07:44:24;;;;;;;11.83;6.93;;;1.60;99.90;0.70;100081;;;;600969;239;24048;-81
2023/12/31 07:46:52;;;;;;;16.70;6.60;;;1.70;99.90;0.80;100082;;;;601438;239;24056;-80
2023/12/31 07:49:20;;;;;;;15.00;7.50;;;1.80;99.90;0.90;100081;;;;596136;239;35105;-81
2023/12/31 07:51:48;;;;;;;10.10;5.57;;;1.80;99.90;0.90;100090;;;;600333;239;24055;-79
2023/12/31 07:54:19;;;;;;;7.40;3.27;;;1.90;99.90;1.10;100094;;;;601098;239;24047;-80
2023/12/31 07:56:44;;;;;;;8.30;3.53;;;2.00;99.90;1.10;100094;;;;590700;240;24049;-80
2023/12/31 07:59:12;;;;;;;5.87;3.83;;;2.10;99.90;1.20;100095;;;;600849;239;24030;-79
2023/12/31 08:01:40;;;;;;;8.27;3.60;;;2.20;99.90;1.30;100102;;;;600756;239;24058;-80
2023/12/31 08:04:08;;;;;;;13.43;4.00;;;2.30;99.90;1.40;100104;;;;600623;239;24046;-80
2023/12/31 08:06:37;;;;;;;6.67;3.93;;;2.40;99.90;1.40;100098;;;;600650;239;24101;-80
2023/12/31 08:09:04;;;;;;;7.37;3.80;;;2.40;99.90;1.50;100101;;;;600845;239;24033;-81
2023/12/31 08:11:32;;;;;;;10.13;4.47;;;2.50;99.90;1.60;100108;;;;601196;239;24056;-83
2023/12/31 08:14:00;;;;;;;14.47;4.77;;;2.50;99.90;1.60;100104;;;;600693;239;24034;-82
2023/12/31 08:16:28;;;;;;;8.03;3.70;;;2.60;99.90;1.60;100104;;;;593176;240;24033;-80
2023/12/31 08:18:56;;;;;;;8.90;4.27;;;2.60;99.90;1.60;100097;;;;602942;239;24025;-79
2023/12/31 08:21:28;;;;;;;13.07;5.20;;;2.60;99.90;1.60;100108;;;;602388;239;24042;-78
2023/12/31 08:23:52;;;;;;;6.40;3.00;;;2.60;99.90;1.70;100104;;;;591693;240;24161;-82
2023/12/31 08:26:21;;;;;;;5.67;3.53;;;2.70;99.90;1.80;100108;;;;601022;239;24045;-81
2023/12/31 08:28:49;;;;;;;5.97;3.23;;;2.70;99.90;1.80;100106;;;;601331;239;24023;-83
2023/12/31 08:31:16;;;;;;;12.70;4.57;;;2.70;99.90;1.90;100117;;;;601826;237;24019;-80
2023/12/31 08:33:44;;;;;;;9.90;3.87;;;2.80;99.90;1.90;100114;;;;596665;238;24044;-80
2023/12/31 08:36:12;;;;;;;12.77;3.67;;;2.90;99.90;2.00;100111;;;;602592;239;24050;-83
2023/12/31 08:38:40;;;;;;;10.80;4.27;;;3.00;99.90;2.10;100108;;;;602378;239;24113;-81
2023/12/31 08:41:08;;;;;;;13.13;3.70;;;3.10;99.90;2.10;100115;;;;602266;239;24094;-84
2023/12/31 08:43:39;;;;;;;8.13;3.90;;;3.10;99.90;2.20;100124;;;;601982;239;25084;-82
2023/12/31 08:46:07;;;;;;;8.30;4.10;;;3.10;99.90;2.20;100129;;;;588490;244;24108;-82
2023/12/31 08:48:32;;;;;;;7.57;4.70;;;3.20;99.90;2.30;100120;;;;600854;239;24074;-83
2023/12/31 08:51:00;;;;;;;7.00;3.87;;;3.20;99.90;2.40;100122;;;;601576;239;24048;-83
2023/12/31 08:53:28;;;;;;;5.87;4.47;;;3.30;99.90;2.40;100124;;;;601539;239;24041;-83
2023/12/31 08:55:59;;;;;;;8.50;5.20;;;3.30;99.90;2.40;100124;;;;601982;239;24051;-82
2023/12/31 08:58:23;;;;;;;8.43;4.77;;;3.40;99.90;2.50;100130;;;;591805;239;24170;-83
2023/12/31 09:00:55;;;;;;;9.37;4.33;;;3.40;99.90;2.50;100127;;;;592505;239;24022;-84
2023/12/31 09:03:19;;;;;;;10.63;4.80;;;3.50;99.90;2.60;100130;;;;591720;239;24060;-82
2023/12/31 09:05:48;;;;;;;8.27;3.93;;;3.50;99.90;2.60;100127;;;;601781;239;24078;-83
2023/12/31 09:08:19;;;;;;;10.80;4.50;;;3.60;99.90;2.70;100131;;;;601469;239;24026;-83
2023/12/31 09:10:44;;;;;;;6.00;4.07;;;3.70;99.90;2.70;100126;;;;591180;240;24061;-81
2023/12/31 09:13:12;;;;;;;14.00;4.60;;;3.60;99.90;2.80;100122;;;;594928;239;25377;-79
2023/12/31 09:15:42;;;;;;;8.53;4.90;;;3.70;99.90;2.90;100125;;;;600962;239;24034;-80
2023/12/31 09:18:07;;;;;;;6.73;4.13;;;3.80;99.90;3.00;100130;;;;600763;239;24083;-82
2023/12/31 09:20:36;;;;;;;7.80;4.77;;;3.90;99.90;3.00;100128;;;;600507;239;24028;-82
2023/12/31 09:23:03;;;;;;;12.97;5.70;;;3.90;99.90;3.10;100120;;;;602065;239;24051;-84
2023/12/31 09:25:31;;;;;;;12.13;6.03;;;4.10;99.90;3.20;100122;;;;602136;239;24027;-83
2023/12/31 09:28:01;;;;;;;20.67;5.97;;;4.10;99.90;3.30;100125;;;;601614;239;24042;-83
2023/12/31 09:30:29;;;;;;;16.07;5.20;;;4.20;99.90;3.30;100123;;;;600996;239;24069;-82
2023/12/31 09:32:58;;;;;;;15.53;6.27;;;4.30;99.90;3.30;100122;;;;602070;239;24037;-83
2023/12/31 09:35:26;;;;;;;10.30;5.73;;;4.30;99.90;3.30;100118;;;;591742;240;24138;-82
2023/12/31 09:37:54;;;;;;;11.80;6.90;;;4.30;99.90;3.40;100118;;;;601486;239;24037;-83
2023/12/31 09:40:21;;;;;;;9.10;5.63;;;4.30;99.90;3.40;100114;;;;601336;239;24030;-82
2023/12/31 09:42:53;;;;;;;10.30;5.60;;;4.40;99.90;3.40;100114;;;;601093;238;25076;-82
2023/12/31 09:45:23;;;;;;;6.67;4.40;;;4.40;99.90;3.50;100109;;;;593019;239;24064;-84
2023/12/31 09:47:54;;;;;;;7.83;4.70;;;4.40;99.90;3.50;100109;;;;580308;244;24127;-83
2023/12/31 09:50:19;;;;;;;21.33;9.70;;;4.50;99.90;3.50;100112;;;;587564;239;35109;-83
2023/12/31 09:52:47;;;;;;;15.60;7.77;;;4.50;99.90;3.50;100100;;;;589517;239;24056;-83
2023/12/31 09:55:20;;;;;;;8.77;6.37;;;4.50;99.90;3.50;100102;;;;595214;239;24076;-84
2023/12/31 09:57:48;;;;;;;17.07;6.83;;;4.50;99.90;3.60;100096;;;;602218;239;24048;-83
2023/12/31 10:00:20;;;;;;;8.37;5.27;;;4.50;99.90;3.60;100086;;;;590755;239;24034;-83
2023/12/31 10:02:47;;;;;;;14.97;7.53;;;4.60;99.90;3.60;100084;;;;601416;239;24068;-80
2023/12/31 10:05:12;;;;;;;12.87;4.80;;;4.60;99.90;3.60;100090;;;;601336;239;24065;-81
2023/12/31 10:07:40;;;;;;;10.37;5.60;;;4.70;99.90;3.70;100091;;;;592737;239;24083;-80
2023/12/31 10:10:08;;;;;;;18.73;7.10;;;4.60;99.90;3.70;100096;;;;601601;239;24050;-83
2023/12/31 10:12:36;;;;;;;18.87;6.20;;;4.70;99.90;3.70;100097;;;;591916;239;24034;-80
2023/12/31 10:15:07;;;;;;;15.20;6.20;;;4.70;99.90;3.80;100103;;;;592420;239;24069;-80
2023/12/31 10:17:33;;;;;;;5.90;4.00;;;4.80;99.90;3.80;100094;;;;592116;239;24059;-79
2023/12/31 10:20:06;;;;;;;11.17;5.30;;;4.80;99.90;3.70;100094;;;;591072;240;24092;-80
2023/12/31 10:22:30;;;;;;;11.97;5.00;;;4.80;99.90;3.70;100095;;;;595300;239;24054;-79
2023/12/31 10:25:18;;;;;;;10.73;6.20;;;4.70;99.90;3.70;100091;;;;600454;239;24135;-81
2023/12/31 10:27:47;;;;;;;18.58;9.32;;;4.70;99.90;3.60;100086;;;;586463;240;35059;-84
2023/12/31 10:30:12;;;;;;;23.13;7.30;;;4.50;99.90;3.50;100088;;;;589197;240;24064;-82
2023/12/31 10:32:40;;;;;;;13.07;6.50;;;4.60;99.90;3.40;100084;;;;600825;239;24085;-82
2023/12/31 10:35:08;;;;;;;8.73;5.07;;;4.40;99.90;3.40;100087;;;;591348;240;24061;-82
2023/12/31 10:37:36;;;;;;;7.73;4.90;;;4.40;99.90;3.40;100086;;;;600876;239;24049;-82
2023/12/31 10:40:22;;;;;;;12.37;5.90;;;4.40;99.90;3.40;100091;;;;591385;240;24032;-83
2023/12/31 10:42:52;;;;;;;8.33;4.17;;;4.40;99.90;3.30;100094;;;;590006;240;24032;-82
2023/12/31 10:45:17;;;;;;;7.40;5.90;;;4.30;99.90;3.20;100082;;;;587555;240;24115;-81
2023/12/31 10:47:46;;;;;;;18.20;9.60;;;4.20;99.90;3.20;100084;;;;586654;240;35039;-82
2023/12/31 10:50:14;;;;;;;15.90;7.53;;;4.20;99.90;3.20;100087;;;;591746;240;25420;-81
2023/12/31 10:52:42;;;;;;;18.70;9.13;;;4.20;99.90;3.20;100076;;;;586596;240;35018;-79
2023/12/31 10:55:13;;;;;;;17.20;10.27;;;4.20;99.90;3.20;100079;;;;593827;239;25376;-81
2023/12/31 10:57:38;;;;;;;9.87;6.17;;;4.20;99.90;3.20;100076;;;;596121;238;24081;-79
2023/12/31 11:00:09;;;;;;;11.77;5.60;;;4.20;99.90;3.30;100067;;;;603085;239;24048;-79
2023/12/31 11:02:34;;;;;;;11.43;6.10;;;4.20;99.90;3.20;100062;;;;592191;239;24103;-82
2023/12/31 11:05:03;;;;;;;21.77;11.00;;;4.20;99.90;3.30;100058;;;;596931;239;35103;-80
2023/12/31 11:58:08;;;;;;;4.33;3.53;;;4.30;99.90;3.20;99988;;;;572665;234;24211;31
2023/12/31 12:00:37;;;;;;;10.80;5.60;;;4.20;99.90;3.10;99994;;;;592931;240;24037;-83
2023/12/31 12:03:04;;;;;;;12.83;6.33;;;4.10;99.90;3.00;99986;;;;590101;240;24035;-81
2023/12/31 12:05:32;;;;;;;16.17;6.43;;;4.00;99.90;2.90;99976;;;;579716;242;24057;-82
2023/12/31 12:08:04;;;;;;;7.27;4.37;;;3.90;99.90;2.90;99971;;;;585435;244;24146;-81
2023/12/31 12:10:33;;;;;;;11.27;5.43;;;3.80;99.90;2.90;99976;;;;590743;240;24033;-83
2023/12/31 12:12:57;;;;;;;11.03;5.40;;;3.80;99.90;2.80;99981;;;;586701;242;24055;-82
2023/12/31 12:15:26;;;;;;;11.00;5.70;;;3.70;99.90;2.80;99979;;;;579694;245;24072;-81
2023/12/31 12:17:54;;;;;;;14.20;7.13;;;3.70;99.90;2.80;99977;;;;590369;240;24110;-85